createdAt,value
2023-02-11T00:00:35.183Z,103291.50
2023-02-11T00:06:22.724Z,103293.78
2023-02-11T00:12:13.047Z,103304.34
2023-02-11T00:18:01.458Z,103301.91
2023-02-11T00:23:52.137Z,103296.00
2023-02-11T00:29:44.746Z,103313.69
2023-02-11T00:35:32.930Z,103314.09
2023-02-11T00:41:21.026Z,103316.97
2023-02-11T00:47:07.761Z,103310.84
2023-02-11T00:53:08.552Z,103317.78
2023-02-11T00:58:55.444Z,103319.19
2023-02-11T01:04:47.567Z,103321.88
2023-02-11T01:10:34.333Z,103316.75
2023-02-11T01:16:28.237Z,103318.41
2023-02-11T01:22:18.296Z,103310.66
2023-02-11T01:28:07.645Z,103317.78
2023-02-11T01:33:59.195Z,103313.34
2023-02-11T01:39:48.940Z,103307.81
2023-02-11T01:45:51.899Z,103310.28
2023-02-11T01:52:01.702Z,103299.47
2023-02-11T01:57:53.738Z,103290.50
2023-02-11T02:03:51.831Z,103293.78
2023-02-11T02:09:45.774Z,103292.56
2023-02-11T02:15:34.902Z,103279.75
2023-02-11T02:22:22.611Z,103292.97
2023-02-11T02:28:33.710Z,103285.81
2023-02-11T02:34:45.232Z,103266.09
2023-02-11T02:40:41.294Z,103274.66
2023-02-11T02:46:39.812Z,103278.13
2023-02-11T02:52:39.973Z,103284.59
2023-02-11T02:58:49.675Z,103268.94
2023-02-11T03:04:39.026Z,103257.34
2023-02-11T03:10:25.926Z,103262.22
2023-02-11T03:16:17.549Z,103252.69
2023-02-11T03:22:11.167Z,103255.53
2023-02-11T03:28:08.975Z,103266.91
2023-02-11T03:33:55.821Z,103261.03
2023-02-11T03:39:50.913Z,103255.72
2023-02-11T03:45:39.100Z,103242.09
2023-02-11T03:51:28.378Z,103249.03
2023-02-11T03:58:16.954Z,103244.34
2023-02-11T04:03:47.863Z,103247.38
2023-02-11T04:09:35.462Z,103241.88
2023-02-11T04:15:24.614Z,103255.88
2023-02-11T04:21:11.496Z,103257.72
2023-02-11T04:27:13.578Z,103253.44
2023-02-11T04:33:28.866Z,103253.06
2023-02-11T04:39:21.275Z,103261.22
2023-02-11T04:45:15.616Z,103260.19
2023-02-11T04:51:05.009Z,103275.88
2023-02-11T04:56:52.027Z,103278.72
2023-02-11T05:02:40.391Z,103283.19
2023-02-11T05:08:38.759Z,103284.44
2023-02-11T05:14:29.317Z,103287.03
2023-02-11T05:20:21.065Z,103283.00
2023-02-11T05:26:19.702Z,103290.75
2023-02-11T05:32:07.709Z,103290.13
2023-02-11T05:37:54.577Z,103301.09
2023-02-11T05:43:41.406Z,103290.72
2023-02-11T05:49:30.847Z,103285.81
2023-02-11T05:55:20.482Z,103287.06
2023-02-11T06:01:07.542Z,103298.28
2023-02-11T06:06:54.439Z,103291.50
2023-02-11T06:12:50.887Z,103287.25
2023-02-11T06:18:40.469Z,103280.75
2023-02-11T06:24:48.079Z,103283.63
2023-02-11T06:30:34.308Z,103288.91
2023-02-11T06:36:22.780Z,103278.69
2023-02-11T06:42:10.326Z,103282.38
2023-02-11T06:47:57.306Z,103297.41
2023-02-11T06:53:45.778Z,103291.72
2023-02-11T06:59:32.810Z,103299.88
2023-02-11T07:05:19.863Z,103298.28
2023-02-11T07:11:15.094Z,103309.66
2023-02-11T07:17:08.428Z,103317.78
2023-02-11T07:23:01.178Z,103332.22
2023-02-11T07:28:53.515Z,103330.41
2023-02-11T07:35:04.600Z,103332.84
2023-02-11T07:41:07.636Z,103342.44
2023-02-11T07:46:57.407Z,103341.44
2023-02-11T07:52:50.562Z,103342.00
2023-02-11T07:58:43.650Z,103341.03
2023-02-11T08:04:31.133Z,103331.63
2023-02-11T08:10:18.105Z,103332.84
2023-02-11T08:16:05.956Z,103341.81
2023-02-11T08:22:05.957Z,103338.34
2023-02-11T08:27:55.721Z,103347.09
2023-02-11T08:33:47.490Z,103341.38
2023-02-11T08:40:16.248Z,103349.06
2023-02-11T08:46:16.831Z,103335.66
2023-02-11T08:52:04.261Z,103340.50
2023-02-11T08:57:52.104Z,103338.09
2023-02-11T09:03:48.437Z,103337.06
2023-02-11T09:09:38.212Z,103337.88
2023-02-11T09:15:27.762Z,103342.47
2023-02-11T09:21:16.856Z,103328.66
2023-02-11T09:27:05.926Z,103335.56
2023-02-11T09:32:56.815Z,103350.59
2023-02-11T09:38:44.582Z,103350.13
2023-02-11T09:44:36.821Z,103340.31
2023-02-11T09:50:27.401Z,103346.75
2023-02-11T09:56:18.176Z,103350.69
2023-02-11T10:02:57.378Z,103344.19
2023-02-11T10:09:02.808Z,103338.34
2023-02-11T10:15:26.650Z,103339.47
2023-02-11T10:22:11.521Z,103353.88
2023-02-11T10:28:01.554Z,103351.47
2023-02-11T10:34:04.537Z,103345.38
2023-02-11T10:39:52.759Z,103349.94
2023-02-11T10:45:44.713Z,103354.00
2023-02-11T10:51:38.138Z,103360.84
2023-02-11T10:57:31.573Z,103356.72
2023-02-11T11:03:29.518Z,103359.91
2023-02-11T11:09:47.019Z,103366.19
2023-02-11T11:15:44.800Z,103359.28
2023-02-11T11:21:44.926Z,103360.34
2023-02-11T11:28:02.749Z,103364.09
2023-02-11T11:33:52.922Z,103371.28
2023-02-11T11:40:00.175Z,103354.47
2023-02-11T11:45:58.567Z,103353.94
2023-02-11T11:52:07.764Z,103341.97
2023-02-11T11:58:05.990Z,103343.00
2023-02-11T12:04:14.337Z,103343.50
2023-02-11T12:10:28.219Z,103338.66
2023-02-11T12:16:15.004Z,103344.56
2023-02-11T12:22:44.771Z,103318.66
2023-02-11T12:28:47.851Z,103326.97
2023-02-11T12:35:06.688Z,103315.44
2023-02-11T12:41:46.847Z,103318.91
2023-02-11T12:47:39.996Z,103317.00
2023-02-11T12:53:51.462Z,103311.16
2023-02-11T13:00:03.898Z,103328.47
2023-02-11T13:06:02.471Z,103318.72
2023-02-11T13:11:59.119Z,103319.00
2023-02-11T13:18:12.214Z,103308.66
2023-02-11T13:24:05.818Z,103292.44
2023-02-11T13:30:32.704Z,103298.47
2023-02-11T13:36:26.883Z,103303.06
2023-02-11T13:42:17.670Z,103311.47
2023-02-11T13:48:08.419Z,103298.78
2023-02-11T13:53:58.045Z,103303.44
2023-02-11T14:00:12.956Z,103297.09
2023-02-11T14:06:28.799Z,103287.00
2023-02-11T14:12:54.155Z,103292.00
2023-02-11T14:18:53.184Z,103274.75
2023-02-11T14:25:10.916Z,103290.19
2023-02-11T14:31:42.157Z,103292.75
2023-02-11T14:37:50.754Z,103294.78
2023-02-11T14:43:48.054Z,103287.47
2023-02-11T14:50:00.174Z,103304.34
2023-02-11T14:55:59.195Z,103292.03
2023-02-11T15:01:59.780Z,103299.81
2023-02-11T15:07:55.265Z,103281.69
2023-02-11T15:13:50.731Z,103297.63
2023-02-11T15:19:49.272Z,103304.78
2023-02-11T15:25:56.485Z,103306.56
2023-02-11T15:31:50.808Z,103300.19
2023-02-11T15:37:43.831Z,103302.22
2023-02-11T15:43:46.495Z,103291.25
2023-02-11T15:49:54.192Z,103301.88
2023-02-11T15:55:57.440Z,103312.84
2023-02-11T16:02:03.600Z,103314.28
2023-02-11T16:14:06.626Z,103309.69
2023-02-11T16:20:16.655Z,103294.16
2023-02-11T16:26:32.213Z,103300.94
2023-02-11T16:38:34.878Z,103319.31
2023-02-11T16:44:22.107Z,103309.50
2023-02-11T16:50:21.661Z,103335.22
2023-02-11T16:56:18.389Z,103326.06
2023-02-11T17:02:19.423Z,103334.63
2023-02-11T17:08:14.086Z,103329.97
2023-02-11T17:14:06.524Z,103334.47
2023-02-11T17:19:59.013Z,103332.94
2023-02-11T17:25:50.381Z,103350.22
2023-02-11T17:31:42.674Z,103348.94
2023-02-11T17:37:30.552Z,103351.00
2023-02-11T17:43:17.492Z,103367.50
2023-02-11T17:49:04.725Z,103360.84
2023-02-11T17:54:57.854Z,103363.00
2023-02-11T18:00:47.454Z,103376.03
2023-02-11T18:06:35.448Z,103369.84
2023-02-11T18:12:37.378Z,103386.31
2023-02-11T18:18:28.574Z,103394.44
2023-02-11T18:24:23.644Z,103412.38
2023-02-11T18:30:49.552Z,103398.16
2023-02-11T18:36:39.318Z,103398.59
2023-02-11T18:49:50.926Z,103403.38
2023-02-11T18:55:42.537Z,103410.75
2023-02-11T19:01:49.045Z,103403.06
2023-02-11T19:15:11.011Z,103385.97
2023-02-11T19:21:56.460Z,103393.69
2023-02-11T19:42:15.623Z,103411.41
2023-02-11T19:55:28.745Z,103407.16
2023-02-11T20:01:37.831Z,103411.66
2023-02-11T20:07:31.233Z,103413.53
2023-02-11T20:13:44.034Z,103424.38
2023-02-11T20:19:43.436Z,103445.78
2023-02-11T20:25:39.563Z,103436.38
2023-02-11T20:39:20.355Z,103428.38
2023-02-11T20:45:52.626Z,103435.13
2023-02-11T20:52:08.837Z,103420.22
2023-02-11T20:57:58.608Z,103424.09
2023-02-11T21:04:49.239Z,103430.81
2023-02-11T21:26:27.332Z,103430.84
2023-02-11T21:32:35.690Z,103433.75
2023-02-11T21:44:47.080Z,103432.97
2023-02-11T21:50:37.619Z,103433.28
2023-02-11T21:56:43.091Z,103434.97
2023-02-11T22:02:33.180Z,103442.38
2023-02-11T22:08:24.674Z,103440.31
2023-02-11T22:14:11.635Z,103451.91
2023-02-11T22:19:59.029Z,103434.03
2023-02-11T22:25:45.960Z,103441.22
2023-02-11T22:31:34.789Z,103445.66
2023-02-11T22:37:24.581Z,103439.75
2023-02-11T22:43:11.539Z,103444.66
2023-02-11T22:48:58.359Z,103437.91
2023-02-11T22:54:45.422Z,103431.78
2023-02-11T23:00:38.010Z,103435.78
2023-02-11T23:06:24.623Z,103436.63
2023-02-11T23:12:11.322Z,103449.47
2023-02-11T23:17:58.591Z,103436.63
2023-02-11T23:23:45.469Z,103443.16
2023-02-11T23:29:34.975Z,103445.44
2023-02-11T23:36:07.933Z,103459.72
2023-02-11T23:42:23.306Z,103469.69
2023-02-11T23:48:18.844Z,103466.84
2023-02-11T23:54:05.812Z,103470.09
2023-02-11T23:59:52.507Z,103452.16
